sensor_id;sensor_type;location;lat;lon;timestamp;pressure;altitude;pressure_sealevel;temperature;humidity
22964;BME280;11648;49.306;6.934;2023-07-13T00:00:11;98453.69;;;20.28;57.65
22964;BME280;11648;49.306;6.934;2023-07-13T00:02:42;98448.13;;;20.14;58.59
22964;BME280;11648;49.306;6.934;2023-07-13T00:05:09;98439.59;;;20.06;58.89
22964;BME280;11648;49.306;6.934;2023-07-13T00:07:36;98440.69;;;20.02;58.77
22964;BME280;11648;49.306;6.934;2023-07-13T00:10:04;98440.81;;;19.82;58.94
22964;BME280;11648;49.306;6.934;2023-07-13T00:12:36;98438.00;;;19.66;59.52
22964;BME280;11648;49.306;6.934;2023-07-13T00:15:16;98440.03;;;19.61;60.62
22964;BME280;11648;49.306;6.934;2023-07-13T00:17:43;98436.84;;;19.53;61.12
22964;BME280;11648;49.306;6.934;2023-07-13T00:20:14;98433.25;;;19.54;61.07
22964;BME280;11648;49.306;6.934;2023-07-13T00:22:40;98435.13;;;19.52;61.41
22964;BME280;11648;49.306;6.934;2023-07-13T00:25:10;98434.56;;;19.45;61.63
22964;BME280;11648;49.306;6.934;2023-07-13T00:27:37;98432.91;;;19.43;61.86
22964;BME280;11648;49.306;6.934;2023-07-13T00:30:05;98428.19;;;19.48;61.75
22964;BME280;11648;49.306;6.934;2023-07-13T00:32:32;98435.28;;;19.49;61.72
22964;BME280;11648;49.306;6.934;2023-07-13T00:34:59;98432.81;;;19.44;61.80
22964;BME280;11648;49.306;6.934;2023-07-13T00:37:26;98441.03;;;19.40;61.94
22964;BME280;11648;49.306;6.934;2023-07-13T00:39:53;98436.81;;;19.34;62.19
22964;BME280;11648;49.306;6.934;2023-07-13T00:42:20;98438.63;;;19.34;62.04
22964;BME280;11648;49.306;6.934;2023-07-13T00:47:40;98436.25;;;19.28;62.10
22964;BME280;11648;49.306;6.934;2023-07-13T00:50:12;98438.81;;;19.29;62.35
22964;BME280;11648;49.306;6.934;2023-07-13T00:52:43;98451.22;;;19.30;62.75
22964;BME280;11648;49.306;6.934;2023-07-13T00:55:11;98458.31;;;19.31;62.78
22964;BME280;11648;49.306;6.934;2023-07-13T00:57:39;98464.00;;;19.23;62.58
22964;BME280;11648;49.306;6.934;2023-07-13T01:00:07;98461.69;;;19.16;63.03
22964;BME280;11648;49.306;6.934;2023-07-13T01:02:40;98452.75;;;19.17;63.25
22964;BME280;11648;49.306;6.934;2023-07-13T01:05:14;98451.81;;;19.18;63.07
22964;BME280;11648;49.306;6.934;2023-07-13T01:07:43;98458.81;;;19.20;62.39
22964;BME280;11648;49.306;6.934;2023-07-13T01:10:12;98460.91;;;19.14;62.25
22964;BME280;11648;49.306;6.934;2023-07-13T01:12:39;98465.38;;;19.13;62.01
22964;BME280;11648;49.306;6.934;2023-07-13T01:16:01;98461.78;;;19.14;62.48
22964;BME280;11648;49.306;6.934;2023-07-13T01:18:23;98462.34;;;19.21;62.61
22964;BME280;11648;49.306;6.934;2023-07-13T01:21:02;98464.78;;;19.07;63.15
22964;BME280;11648;49.306;6.934;2023-07-13T01:23:30;98465.69;;;19.06;63.14
22964;BME280;11648;49.306;6.934;2023-07-13T01:25:58;98469.25;;;19.06;62.99
22964;BME280;11648;49.306;6.934;2023-07-13T01:28:26;98466.00;;;19.00;63.26
22964;BME280;11648;49.306;6.934;2023-07-13T01:30:55;98467.06;;;18.96;63.50
22964;BME280;11648;49.306;6.934;2023-07-13T01:33:23;98465.59;;;18.89;63.82
22964;BME280;11648;49.306;6.934;2023-07-13T01:35:50;98475.72;;;18.81;64.08
22964;BME280;11648;49.306;6.934;2023-07-13T01:38:20;98476.03;;;18.93;64.15
22964;BME280;11648;49.306;6.934;2023-07-13T01:40:47;98473.50;;;18.90;64.04
22964;BME280;11648;49.306;6.934;2023-07-13T01:43:14;98472.78;;;18.87;64.32
22964;BME280;11648;49.306;6.934;2023-07-13T01:45:41;98474.66;;;18.85;64.17
22964;BME280;11648;49.306;6.934;2023-07-13T01:48:12;98470.19;;;18.85;64.25
22964;BME280;11648;49.306;6.934;2023-07-13T01:50:39;98479.13;;;18.84;64.60
22964;BME280;11648;49.306;6.934;2023-07-13T01:53:07;98469.31;;;18.85;64.89
22964;BME280;11648;49.306;6.934;2023-07-13T01:55:34;98468.41;;;18.86;64.74
22964;BME280;11648;49.306;6.934;2023-07-13T01:58:02;98477.34;;;18.85;64.92
22964;BME280;11648;49.306;6.934;2023-07-13T02:00:29;98470.97;;;18.87;65.21
22964;BME280;11648;49.306;6.934;2023-07-13T02:02:56;98482.84;;;18.80;65.48
22964;BME280;11648;49.306;6.934;2023-07-13T02:05:23;98487.72;;;18.70;65.59
22964;BME280;11648;49.306;6.934;2023-07-13T02:07:50;98483.59;;;18.63;65.24
22964;BME280;11648;49.306;6.934;2023-07-13T02:10:17;98475.59;;;18.63;64.70
22964;BME280;11648;49.306;6.934;2023-07-13T02:12:44;98489.84;;;18.62;64.54
22964;BME280;11648;49.306;6.934;2023-07-13T02:15:11;98486.59;;;18.56;64.51
22964;BME280;11648;49.306;6.934;2023-07-13T02:17:38;98485.25;;;18.44;64.55
22964;BME280;11648;49.306;6.934;2023-07-13T02:20:05;98493.72;;;18.34;65.06
22964;BME280;11648;49.306;6.934;2023-07-13T02:22:32;98480.38;;;18.34;65.73
22964;BME280;11648;49.306;6.934;2023-07-13T02:24:59;98489.38;;;18.53;65.31
22964;BME280;11648;49.306;6.934;2023-07-13T02:27:26;98493.31;;;18.64;65.24
22964;BME280;11648;49.306;6.934;2023-07-13T02:29:53;98491.50;;;18.65;65.55
22964;BME280;11648;49.306;6.934;2023-07-13T02:32:21;98493.34;;;18.85;65.32
22964;BME280;11648;49.306;6.934;2023-07-13T02:34:49;98496.41;;;18.96;65.36
22964;BME280;11648;49.306;6.934;2023-07-13T02:37:15;98486.13;;;19.07;64.83
22964;BME280;11648;49.306;6.934;2023-07-13T02:39:42;98478.63;;;19.15;64.77
22964;BME280;11648;49.306;6.934;2023-07-13T02:42:09;98482.91;;;18.99;64.49
22964;BME280;11648;49.306;6.934;2023-07-13T02:44:36;98475.31;;;19.10;64.11
22964;BME280;11648;49.306;6.934;2023-07-13T02:47:03;98479.00;;;19.07;64.25
22964;BME280;11648;49.306;6.934;2023-07-13T02:49:30;98484.25;;;19.09;64.37
22964;BME280;11648;49.306;6.934;2023-07-13T02:51:57;98483.16;;;19.13;64.04
22964;BME280;11648;49.306;6.934;2023-07-13T02:54:24;98475.56;;;19.04;63.99
22964;BME280;11648;49.306;6.934;2023-07-13T02:56:51;98478.38;;;19.01;63.87
22964;BME280;11648;49.306;6.934;2023-07-13T02:59:18;98488.25;;;18.99;64.14
22964;BME280;11648;49.306;6.934;2023-07-13T03:01:45;98500.06;;;18.93;64.28
22964;BME280;11648;49.306;6.934;2023-07-13T03:04:12;98489.13;;;18.99;64.48
22964;BME280;11648;49.306;6.934;2023-07-13T03:06:39;98500.78;;;18.97;64.75
22964;BME280;11648;49.306;6.934;2023-07-13T03:09:06;98494.38;;;19.01;64.65
22964;BME280;11648;49.306;6.934;2023-07-13T03:11:35;98488.84;;;19.05;64.49
22964;BME280;11648;49.306;6.934;2023-07-13T03:14:11;98501.00;;;18.92;65.20
22964;BME280;11648;49.306;6.934;2023-07-13T03:16:38;98503.00;;;18.87;65.22
22964;BME280;11648;49.306;6.934;2023-07-13T03:19:05;98505.94;;;18.81;65.83
22964;BME280;11648;49.306;6.934;2023-07-13T03:21:32;98504.72;;;18.68;65.97
22964;BME280;11648;49.306;6.934;2023-07-13T03:23:59;98502.78;;;18.71;65.45
22964;BME280;11648;49.306;6.934;2023-07-13T03:26:27;98507.06;;;18.75;65.92
22964;BME280;11648;49.306;6.934;2023-07-13T03:28:55;98512.06;;;18.83;65.62
22964;BME280;11648;49.306;6.934;2023-07-13T03:31:27;98509.53;;;18.80;65.64
22964;BME280;11648;49.306;6.934;2023-07-13T03:33:56;98513.84;;;18.83;65.20
22964;BME280;11648;49.306;6.934;2023-07-13T03:36:26;98517.19;;;18.88;65.27
22964;BME280;11648;49.306;6.934;2023-07-13T03:38:58;98516.94;;;18.94;65.33
22964;BME280;11648;49.306;6.934;2023-07-13T03:41:34;98525.34;;;18.85;65.09
22964;BME280;11648;49.306;6.934;2023-07-13T03:44:01;98518.13;;;18.87;65.54
22964;BME280;11648;49.306;6.934;2023-07-13T03:46:27;98524.16;;;18.92;65.00
22964;BME280;11648;49.306;6.934;2023-07-13T03:48:57;98518.66;;;18.95;65.05
22964;BME280;11648;49.306;6.934;2023-07-13T03:51:24;98519.34;;;19.00;64.94
22964;BME280;11648;49.306;6.934;2023-07-13T03:53:51;98520.47;;;18.94;64.58
22964;BME280;11648;49.306;6.934;2023-07-13T03:56:19;98524.16;;;18.92;64.40
22964;BME280;11648;49.306;6.934;2023-07-13T03:58:48;98526.13;;;18.87;64.88
22964;BME280;11648;49.306;6.934;2023-07-13T04:01:23;98539.94;;;18.76;65.39
22964;BME280;11648;49.306;6.934;2023-07-13T04:03:51;98532.66;;;18.80;65.72
22964;BME280;11648;49.306;6.934;2023-07-13T04:06:23;98535.00;;;18.87;65.77
22964;BME280;11648;49.306;6.934;2023-07-13T04:08:53;98538.81;;;18.82;65.21
22964;BME280;11648;49.306;6.934;2023-07-13T04:11:22;98532.69;;;19.00;64.20
22964;BME280;11648;49.306;6.934;2023-07-13T04:13:50;98535.88;;;19.08;63.78
22964;BME280;11648;49.306;6.934;2023-07-13T04:16:18;98533.44;;;19.22;63.13
22964;BME280;11648;49.306;6.934;2023-07-13T04:18:46;98538.00;;;19.20;63.88
22964;BME280;11648;49.306;6.934;2023-07-13T04:21:14;98539.03;;;19.17;64.01
22964;BME280;11648;49.306;6.934;2023-07-13T04:23:41;98550.19;;;19.25;64.17
22964;BME280;11648;49.306;6.934;2023-07-13T04:26:08;98543.00;;;19.28;63.81
22964;BME280;11648;49.306;6.934;2023-07-13T04:28:36;98541.22;;;19.28;63.47
22964;BME280;11648;49.306;6.934;2023-07-13T04:31:02;98559.22;;;19.23;63.18
22964;BME280;11648;49.306;6.934;2023-07-13T04:33:30;98548.78;;;19.37;62.77
22964;BME280;11648;49.306;6.934;2023-07-13T04:35:57;98550.28;;;19.44;62.70
22964;BME280;11648;49.306;6.934;2023-07-13T04:38:30;98552.06;;;19.64;62.58
22964;BME280;11648;49.306;6.934;2023-07-13T04:40:59;98542.69;;;19.74;61.95
22964;BME280;11648;49.306;6.934;2023-07-13T04:43:27;98548.16;;;19.71;61.86
22964;BME280;11648;49.306;6.934;2023-07-13T04:45:54;98552.28;;;19.78;61.32
22964;BME280;11648;49.306;6.934;2023-07-13T04:48:22;98547.81;;;19.79;61.39
22964;BME280;11648;49.306;6.934;2023-07-13T04:50:57;98557.19;;;19.87;61.35
22964;BME280;11648;49.306;6.934;2023-07-13T04:53:25;98550.63;;;19.94;61.24
22964;BME280;11648;49.306;6.934;2023-07-13T04:55:52;98549.38;;;20.01;61.24
22964;BME280;11648;49.306;6.934;2023-07-13T04:58:19;98555.38;;;20.25;60.68
22964;BME280;11648;49.306;6.934;2023-07-13T05:00:46;98556.91;;;20.31;60.21
22964;BME280;11648;49.306;6.934;2023-07-13T05:03:12;98549.34;;;20.40;60.14
22964;BME280;11648;49.306;6.934;2023-07-13T05:05:39;98550.47;;;20.53;59.96
22964;BME280;11648;49.306;6.934;2023-07-13T05:08:06;98549.53;;;20.72;59.58
22964;BME280;11648;49.306;6.934;2023-07-13T05:10:35;98554.50;;;20.79;59.15
22964;BME280;11648;49.306;6.934;2023-07-13T05:13:02;98548.22;;;20.97;58.76
22964;BME280;11648;49.306;6.934;2023-07-13T05:15:29;98557.31;;;21.12;58.60
22964;BME280;11648;49.306;6.934;2023-07-13T05:17:56;98562.50;;;21.15;57.13
22964;BME280;11648;49.306;6.934;2023-07-13T05:20:23;98564.69;;;21.24;57.18
22964;BME280;11648;49.306;6.934;2023-07-13T05:22:50;98562.09;;;21.23;57.49
22964;BME280;11648;49.306;6.934;2023-07-13T05:25:17;98566.44;;;21.25;57.21
22964;BME280;11648;49.306;6.934;2023-07-13T05:27:44;98578.06;;;21.24;57.40
22964;BME280;11648;49.306;6.934;2023-07-13T05:30:12;98573.66;;;21.23;57.37
22964;BME280;11648;49.306;6.934;2023-07-13T05:32:40;98571.63;;;21.28;57.24
22964;BME280;11648;49.306;6.934;2023-07-13T05:35:07;98567.75;;;21.34;56.92
22964;BME280;11648;49.306;6.934;2023-07-13T05:37:34;98572.00;;;21.38;56.75
22964;BME280;11648;49.306;6.934;2023-07-13T05:40:01;98577.13;;;21.42;56.36
22964;BME280;11648;49.306;6.934;2023-07-13T05:42:28;98567.31;;;21.58;56.56
22964;BME280;11648;49.306;6.934;2023-07-13T05:44:57;98573.41;;;21.78;56.05
22964;BME280;11648;49.306;6.934;2023-07-13T05:47:24;98572.88;;;22.04;55.43
22964;BME280;11648;49.306;6.934;2023-07-13T05:49:51;98560.53;;;22.17;54.05
22964;BME280;11648;49.306;6.934;2023-07-13T05:52:18;98572.09;;;22.49;53.28
22964;BME280;11648;49.306;6.934;2023-07-13T05:54:44;98576.66;;;22.94;52.85
22964;BME280;11648;49.306;6.934;2023-07-13T05:57:11;98579.22;;;23.11;52.18
22964;BME280;11648;49.306;6.934;2023-07-13T05:59:38;98569.16;;;23.44;50.18
22964;BME280;11648;49.306;6.934;2023-07-13T06:02:05;98567.09;;;23.78;49.71
22964;BME280;11648;49.306;6.934;2023-07-13T06:04:34;98563.72;;;24.02;48.58
22964;BME280;11648;49.306;6.934;2023-07-13T06:07:00;98576.44;;;24.41;47.49
22964;BME280;11648;49.306;6.934;2023-07-13T06:09:27;98569.66;;;24.63;46.98
22964;BME280;11648;49.306;6.934;2023-07-13T06:11:54;98566.03;;;24.76;45.49
22964;BME280;11648;49.306;6.934;2023-07-13T06:14:20;98567.75;;;24.50;45.13
22964;BME280;11648;49.306;6.934;2023-07-13T06:16:47;98561.09;;;24.83;43.95
22964;BME280;11648;49.306;6.934;2023-07-13T06:19:14;98564.13;;;25.05;43.23
22964;BME280;11648;49.306;6.934;2023-07-13T06:21:41;98561.41;;;24.92;43.75
22964;BME280;11648;49.306;6.934;2023-07-13T06:24:08;98568.25;;;24.84;43.80
22964;BME280;11648;49.306;6.934;2023-07-13T06:26:34;98573.00;;;24.66;43.60
22964;BME280;11648;49.306;6.934;2023-07-13T06:29:01;98569.88;;;24.59;43.28
22964;BME280;11648;49.306;6.934;2023-07-13T06:31:28;98576.16;;;24.73;43.95
22964;BME280;11648;49.306;6.934;2023-07-13T06:33:55;98575.84;;;24.77;44.26
22964;BME280;11648;49.306;6.934;2023-07-13T06:36:21;98576.91;;;24.89;43.81
22964;BME280;11648;49.306;6.934;2023-07-13T06:38:48;98579.78;;;24.86;44.42
22964;BME280;11648;49.306;6.934;2023-07-13T06:41:15;98579.72;;;24.73;44.71
22964;BME280;11648;49.306;6.934;2023-07-13T06:43:42;98584.47;;;24.55;44.91
22964;BME280;11648;49.306;6.934;2023-07-13T06:46:09;98584.75;;;24.24;45.93
22964;BME280;11648;49.306;6.934;2023-07-13T06:48:36;98594.84;;;23.92;46.35
22964;BME280;11648;49.306;6.934;2023-07-13T06:51:03;98606.53;;;24.05;46.69
22964;BME280;11648;49.306;6.934;2023-07-13T06:53:29;98603.19;;;24.16;46.80
22964;BME280;11648;49.306;6.934;2023-07-13T06:55:56;98590.94;;;24.80;44.04
22964;BME280;11648;49.306;6.934;2023-07-13T06:58:23;98591.00;;;25.71;42.99
22964;BME280;11648;49.306;6.934;2023-07-13T07:00:51;98583.88;;;26.44;41.72
22964;BME280;11648;49.306;6.934;2023-07-13T07:03:18;98578.31;;;26.95;40.10
22964;BME280;11648;49.306;6.934;2023-07-13T07:05:45;98574.91;;;26.80;39.76
22964;BME280;11648;49.306;6.934;2023-07-13T07:08:12;98576.97;;;26.53;39.50
22964;BME280;11648;49.306;6.934;2023-07-13T07:10:40;98576.59;;;26.09;39.14
22964;BME280;11648;49.306;6.934;2023-07-13T07:13:07;98573.34;;;26.16;39.72
22964;BME280;11648;49.306;6.934;2023-07-13T07:15:34;98583.94;;;25.94;39.62
22964;BME280;11648;49.306;6.934;2023-07-13T07:18:02;98582.31;;;26.17;39.56
22964;BME280;11648;49.306;6.934;2023-07-13T07:20:29;98583.00;;;26.57;39.21
22964;BME280;11648;49.306;6.934;2023-07-13T07:22:57;98576.72;;;26.56;38.49
22964;BME280;11648;49.306;6.934;2023-07-13T07:25:23;98583.38;;;27.34;37.64
22964;BME280;11648;49.306;6.934;2023-07-13T07:27:50;98573.41;;;27.70;36.47
22964;BME280;11648;49.306;6.934;2023-07-13T07:30:20;98575.75;;;26.57;38.06
22964;BME280;11648;49.306;6.934;2023-07-13T07:32:49;98586.97;;;27.00;37.92
22964;BME280;11648;49.306;6.934;2023-07-13T07:35:19;98586.72;;;27.62;37.31
22964;BME280;11648;49.306;6.934;2023-07-13T07:37:46;98577.00;;;27.70;37.39
22964;BME280;11648;49.306;6.934;2023-07-13T07:40:17;98580.84;;;28.34;36.69
22964;BME280;11648;49.306;6.934;2023-07-13T07:42:47;98575.84;;;28.95;35.44
22964;BME280;11648;49.306;6.934;2023-07-13T07:45:13;98576.22;;;29.22;34.51
22964;BME280;11648;49.306;6.934;2023-07-13T07:47:40;98575.31;;;29.33;34.72
22964;BME280;11648;49.306;6.934;2023-07-13T07:50:08;98569.41;;;29.28;34.31
22964;BME280;11648;49.306;6.934;2023-07-13T07:52:35;98574.78;;;29.39;34.26
22964;BME280;11648;49.306;6.934;2023-07-13T07:55:06;98580.31;;;29.90;33.34
22964;BME280;11648;49.306;6.934;2023-07-13T07:57:36;98574.88;;;29.90;33.88
22964;BME280;11648;49.306;6.934;2023-07-13T08:00:06;98580.16;;;29.50;33.61
22964;BME280;11648;49.306;6.934;2023-07-13T08:02:43;98580.00;;;28.99;33.89
22964;BME280;11648;49.306;6.934;2023-07-13T08:05:12;98582.84;;;28.98;34.40
22964;BME280;11648;49.306;6.934;2023-07-13T08:07:42;98587.22;;;28.78;34.16
22964;BME280;11648;49.306;6.934;2023-07-13T08:10:09;98579.03;;;29.32;34.46
22964;BME280;11648;49.306;6.934;2023-07-13T08:12:37;98565.78;;;30.01;32.93
22964;BME280;11648;49.306;6.934;2023-07-13T08:15:11;98561.84;;;30.14;32.48
22964;BME280;11648;49.306;6.934;2023-07-13T08:17:38;98557.00;;;30.58;31.61
22964;BME280;11648;49.306;6.934;2023-07-13T08:20:05;98559.06;;;30.75;31.76
22964;BME280;11648;49.306;6.934;2023-07-13T08:22:32;98568.28;;;31.12;31.76
22964;BME280;11648;49.306;6.934;2023-07-13T08:24:59;98559.41;;;31.39;30.87
22964;BME280;11648;49.306;6.934;2023-07-13T08:27:27;98559.13;;;31.52;30.17
22964;BME280;11648;49.306;6.934;2023-07-13T08:29:55;98552.94;;;31.59;30.32
22964;BME280;11648;49.306;6.934;2023-07-13T08:32:23;98548.59;;;31.76;30.16
22964;BME280;11648;49.306;6.934;2023-07-13T08:34:50;98537.34;;;31.52;29.96
22964;BME280;11648;49.306;6.934;2023-07-13T08:37:18;98547.66;;;31.00;30.86
22964;BME280;11648;49.306;6.934;2023-07-13T08:39:45;98549.06;;;30.85;31.71
22964;BME280;11648;49.306;6.934;2023-07-13T08:42:19;98552.91;;;30.82;30.87
22964;BME280;11648;49.306;6.934;2023-07-13T08:47:21;98557.25;;;31.43;30.13
22964;BME280;11648;49.306;6.934;2023-07-13T08:49:49;98545.31;;;31.72;30.27
22964;BME280;11648;49.306;6.934;2023-07-13T08:52:27;98554.59;;;31.89;30.22
22964;BME280;11648;49.306;6.934;2023-07-13T08:54:58;98550.03;;;31.80;29.74
22964;BME280;11648;49.306;6.934;2023-07-13T08:57:33;98554.34;;;31.82;30.06
22964;BME280;11648;49.306;6.934;2023-07-13T09:00:00;98553.38;;;31.64;29.57
22964;BME280;11648;49.306;6.934;2023-07-13T09:02:48;98548.59;;;32.22;28.78
22964;BME280;11648;49.306;6.934;2023-07-13T09:05:28;98545.66;;;32.70;28.98
22964;BME280;11648;49.306;6.934;2023-07-13T09:10:46;98539.69;;;33.20;27.02
22964;BME280;11648;49.306;6.934;2023-07-13T09:13:40;98542.38;;;33.73;27.21
22964;BME280;11648;49.306;6.934;2023-07-13T09:16:10;98539.41;;;33.92;26.51
22964;BME280;11648;49.306;6.934;2023-07-13T09:18:42;98539.72;;;34.49;26.20
22964;BME280;11648;49.306;6.934;2023-07-13T09:21:27;98529.19;;;34.62;25.54
22964;BME280;11648;49.306;6.934;2023-07-13T09:26:44;98526.50;;;34.78;25.11
22964;BME280;11648;49.306;6.934;2023-07-13T09:29:17;98527.69;;;34.26;25.75
22964;BME280;11648;49.306;6.934;2023-07-13T09:31:50;98538.59;;;34.26;25.89
22964;BME280;11648;49.306;6.934;2023-07-13T09:34:19;98529.66;;;34.57;24.60
22964;BME280;11648;49.306;6.934;2023-07-13T09:36:46;98541.63;;;34.14;25.49
22964;BME280;11648;49.306;6.934;2023-07-13T09:42:01;98524.13;;;34.07;26.17
22964;BME280;11648;49.306;6.934;2023-07-13T09:44:50;98537.22;;;34.21;25.97
22964;BME280;11648;49.306;6.934;2023-07-13T09:47:19;98540.44;;;34.51;25.01
22964;BME280;11648;49.306;6.934;2023-07-13T09:50:01;98546.66;;;34.69;24.84
22964;BME280;11648;49.306;6.934;2023-07-13T09:52:49;98554.59;;;34.46;25.03
22964;BME280;11648;49.306;6.934;2023-07-13T09:55:28;98565.06;;;35.09;25.09
22964;BME280;11648;49.306;6.934;2023-07-13T09:57:55;98558.31;;;34.79;24.97
22964;BME280;11648;49.306;6.934;2023-07-13T10:00:28;98561.22;;;33.84;26.16
22964;BME280;11648;49.306;6.934;2023-07-13T10:03:04;98562.19;;;34.01;26.36
22964;BME280;11648;49.306;6.934;2023-07-13T10:05:43;98567.19;;;33.62;26.06
22964;BME280;11648;49.306;6.934;2023-07-13T10:08:28;98574.88;;;32.51;27.05
22964;BME280;11648;49.306;6.934;2023-07-13T10:10:59;98588.13;;;31.90;28.41
22964;BME280;11648;49.306;6.934;2023-07-13T10:13:29;98602.38;;;31.64;28.34
22964;BME280;11648;49.306;6.934;2023-07-13T10:15:59;98595.19;;;31.44;28.15
22964;BME280;11648;49.306;6.934;2023-07-13T10:18:26;98604.78;;;31.58;28.32
22964;BME280;11648;49.306;6.934;2023-07-13T10:21:27;98586.78;;;35.10;24.93
22964;BME280;11648;49.306;6.934;2023-07-13T10:24:20;98568.38;;;35.61;23.79
22964;BME280;11648;49.306;6.934;2023-07-13T10:27:17;98558.09;;;38.03;20.95
22964;BME280;11648;49.306;6.934;2023-07-13T10:29:55;98549.97;;;38.83;19.39
22964;BME280;11648;49.306;6.934;2023-07-13T10:32:25;98559.19;;;40.03;18.54
22964;BME280;11648;49.306;6.934;2023-07-13T10:34:53;98579.88;;;39.64;19.02
22964;BME280;11648;49.306;6.934;2023-07-13T10:37:26;98584.13;;;38.59;19.65
22964;BME280;11648;49.306;6.934;2023-07-13T10:39:55;98580.69;;;39.79;18.67
22964;BME280;11648;49.306;6.934;2023-07-13T10:42:32;98562.00;;;42.57;17.12
22964;BME280;11648;49.306;6.934;2023-07-13T10:45:00;98566.50;;;44.28;15.64
22964;BME280;11648;49.306;6.934;2023-07-13T10:47:28;98582.59;;;45.76;14.79
22964;BME280;11648;49.306;6.934;2023-07-13T10:49:57;98579.22;;;46.79;13.74
22964;BME280;11648;49.306;6.934;2023-07-13T10:52:48;98581.34;;;47.11;13.04
22964;BME280;11648;49.306;6.934;2023-07-13T10:55:37;98583.38;;;47.73;12.52
22964;BME280;11648;49.306;6.934;2023-07-13T10:58:22;98580.94;;;47.60;12.82
22964;BME280;11648;49.306;6.934;2023-07-13T11:00:56;98583.72;;;47.31;12.23
22964;BME280;11648;49.306;6.934;2023-07-13T11:03:27;98592.59;;;45.65;13.25
22964;BME280;11648;49.306;6.934;2023-07-13T11:06:15;98596.56;;;42.02;16.27
22964;BME280;11648;49.306;6.934;2023-07-13T11:11:36;98604.66;;;38.04;19.11
22964;BME280;11648;49.306;6.934;2023-07-13T11:14:29;98603.16;;;38.17;19.28
22964;BME280;11648;49.306;6.934;2023-07-13T11:16:56;98603.03;;;40.46;17.07
22964;BME280;11648;49.306;6.934;2023-07-13T11:19:24;98587.00;;;41.84;16.02
22964;BME280;11648;49.306;6.934;2023-07-13T11:24:58;98606.19;;;39.88;17.15
22964;BME280;11648;49.306;6.934;2023-07-13T11:27:39;98595.50;;;38.85;18.72
22964;BME280;11648;49.306;6.934;2023-07-13T11:30:25;98591.81;;;40.89;17.40
22964;BME280;11648;49.306;6.934;2023-07-13T11:33:21;98583.56;;;39.99;17.24
22964;BME280;11648;49.306;6.934;2023-07-13T11:35:57;98603.34;;;38.00;19.38
22964;BME280;11648;49.306;6.934;2023-07-13T11:38:45;98602.19;;;36.49;21.05
22964;BME280;11648;49.306;6.934;2023-07-13T11:41:19;98606.88;;;35.27;22.42
22964;BME280;11648;49.306;6.934;2023-07-13T11:43:53;98603.72;;;34.04;23.49
22964;BME280;11648;49.306;6.934;2023-07-13T11:46:23;98616.19;;;33.63;23.85
22964;BME280;11648;49.306;6.934;2023-07-13T11:48:51;98616.72;;;33.14;24.60
22964;BME280;11648;49.306;6.934;2023-07-13T11:51:31;98611.38;;;34.94;23.09
22964;BME280;11648;49.306;6.934;2023-07-13T11:54:05;98612.09;;;37.05;20.64
22964;BME280;11648;49.306;6.934;2023-07-13T11:56:33;98609.53;;;37.57;19.71
22964;BME280;11648;49.306;6.934;2023-07-13T11:59:06;98607.81;;;36.63;20.87
22964;BME280;11648;49.306;6.934;2023-07-13T12:01:36;98614.91;;;35.29;21.64
22964;BME280;11648;49.306;6.934;2023-07-13T12:04:20;98612.22;;;34.01;22.83
22964;BME280;11648;49.306;6.934;2023-07-13T12:06:55;98612.22;;;33.22;23.64
22964;BME280;11648;49.306;6.934;2023-07-13T12:09:21;98616.88;;;32.58;24.25
22964;BME280;11648;49.306;6.934;2023-07-13T12:11:52;98623.56;;;32.36;25.15
22964;BME280;11648;49.306;6.934;2023-07-13T12:14:19;98627.75;;;32.30;25.55
22964;BME280;11648;49.306;6.934;2023-07-13T12:16:46;98633.53;;;32.08;26.23
22964;BME280;11648;49.306;6.934;2023-07-13T12:19:20;98632.22;;;32.22;25.32
22964;BME280;11648;49.306;6.934;2023-07-13T12:21:48;98632.81;;;32.53;26.01
22964;BME280;11648;49.306;6.934;2023-07-13T12:24:20;98632.03;;;32.70;25.74
22964;BME280;11648;49.306;6.934;2023-07-13T12:27:00;98632.94;;;32.88;25.49
22964;BME280;11648;49.306;6.934;2023-07-13T12:29:28;98624.56;;;32.99;24.87
22964;BME280;11648;49.306;6.934;2023-07-13T12:31:55;98623.84;;;33.24;25.17
22964;BME280;11648;49.306;6.934;2023-07-13T12:34:25;98629.97;;;33.97;24.00
22964;BME280;11648;49.306;6.934;2023-07-13T12:36:59;98635.34;;;33.89;23.46
22964;BME280;11648;49.306;6.934;2023-07-13T12:39:46;98633.19;;;33.57;23.78
22964;BME280;11648;49.306;6.934;2023-07-13T12:44:48;98636.88;;;33.03;24.84
22964;BME280;11648;49.306;6.934;2023-07-13T12:47:16;98630.38;;;32.87;25.36
22964;BME280;11648;49.306;6.934;2023-07-13T12:49:52;98634.81;;;32.60;25.33
22964;BME280;11648;49.306;6.934;2023-07-13T12:52:28;98634.25;;;32.57;25.35
22964;BME280;11648;49.306;6.934;2023-07-13T12:55:02;98642.09;;;32.33;25.88
22964;BME280;11648;49.306;6.934;2023-07-13T12:57:38;98640.88;;;31.89;26.40
22964;BME280;11648;49.306;6.934;2023-07-13T13:00:28;98639.19;;;31.40;27.57
22964;BME280;11648;49.306;6.934;2023-07-13T13:03:00;98650.03;;;31.30;27.48
22964;BME280;11648;49.306;6.934;2023-07-13T13:05:56;98643.59;;;31.31;26.89
22964;BME280;11648;49.306;6.934;2023-07-13T13:08:23;98648.47;;;31.37;27.31
22964;BME280;11648;49.306;6.934;2023-07-13T13:10:50;98655.63;;;31.48;26.76
22964;BME280;11648;49.306;6.934;2023-07-13T13:13:16;98654.75;;;31.18;27.58
22964;BME280;11648;49.306;6.934;2023-07-13T13:15:43;98650.03;;;31.20;27.46
22964;BME280;11648;49.306;6.934;2023-07-13T13:18:18;98652.59;;;31.22;27.21
22964;BME280;11648;49.306;6.934;2023-07-13T13:20:46;98639.78;;;31.72;27.06
22964;BME280;11648;49.306;6.934;2023-07-13T13:23:15;98638.38;;;32.05;27.08
22964;BME280;11648;49.306;6.934;2023-07-13T13:25:46;98634.88;;;32.41;26.50
22964;BME280;11648;49.306;6.934;2023-07-13T13:28:19;98622.91;;;32.61;26.20
22964;BME280;11648;49.306;6.934;2023-07-13T13:30:50;98624.38;;;32.83;25.13
22964;BME280;11648;49.306;6.934;2023-07-13T13:33:20;98627.22;;;32.54;24.93
22964;BME280;11648;49.306;6.934;2023-07-13T13:35:48;98627.81;;;32.11;25.01
22964;BME280;11648;49.306;6.934;2023-07-13T13:38:20;98627.81;;;31.92;25.08